Alden, Minnesota
Current Conditions -  °F | °C
As of 2:14 AM on Thursday 29 Jan 2015 (Local Time) from KAEL Reporting Station
Haze Haze  
Wind Chill: 22°   Ceiling: 700
Heat Index: 32°   Visibility: 2.5mi
Dew Point: 32°   Wind: 14mph
Humidity: 100%   Direction: 330°NNW
Pressure: 29.88"   Gusts: 23mph
Location:  43.67°N, 93.58°W
Report Text: KAEL 290814Z AUTO 33012G20KT 2 1/2SM BR OVC007 00/00 A2988 RMK AO2
Loading
Personal Weather Stations






























Interactive Weather Map New forecast layout! Learn more

10-Day Weather Forecast

Advertisements
Track Severe Weather on mobile